Ulusoy-14 — TCUP3 — position and weather

sailwx.info

Track history (hours):
 
Tides and Currents Weather Stations Pressure Air Temp Water Temp Dewpoint Dewpoint Depression Visibility Wind Speed Wind Dir Waves Ship Positions

Ulusoy-14

Last reported at 2018-Jun-23 13:58 UTC. Time now 2018-Jun-23 14:09 UTC.
Position N 45°38' E 013°46'.

Length 208 m; draft 5.4 m.

Type: Cargo ship. MMSI: 271043164.

Date/timePositionNaut miles runAvg speedWind from/ knotsBaromVisibWave heightAir tempDewpointWater temp
2018-Jun-23 13:58N 45°38' E 013°46'0 0.0
2018-Jun-23 13:28N 45°38' E 013°46'0 0.0
2018-Jun-23 12:58N 45°38' E 013°46'0 0.0
2018-Jun-23 12:28N 45°38' E 013°46'0 0.0
2018-Jun-23 11:58N 45°38' E 013°46'0 0.0
2018-Jun-23 11:28N 45°38' E 013°46'0 0.0
2018-Jun-23 10:58N 45°38' E 013°46'0 0.0
2018-Jun-23 10:28N 45°38' E 013°46'0 0.0
2018-Jun-23 09:58N 45°38' E 013°46'0 0.0
2018-Jun-23 09:28N 45°38' E 013°46'0 0.0
2018-Jun-23 08:58N 45°38' E 013°46'0 0.0
2018-Jun-23 08:28N 45°38' E 013°46'0 0.0
2018-Jun-23 08:01N 45°38' E 013°46'1 1.8
2018-Jun-23 07:30N 45°38' E 013°44'612.3
2018-Jun-23 07:00N 45°37' E 013°36'917.3
2018-Jun-23 06:30N 45°32' E 013°26'917.3
2018-Jun-23 06:00N 45°27' E 013°16'815.9
2018-Jun-23 05:30N 45°19' E 013°13'917.8
2018-Jun-23 05:00N 45°11' E 013°17'917.9
2018-Jun-23 04:30N 45°02' E 013°20'917.6
2018-Jun-23 04:00N 44°54' E 013°25'917.8
2018-Jun-23 03:30N 44°46' E 013°31'917.6
2018-Jun-23 03:00N 44°39' E 013°38'1917.4
2018-Jun-23 01:55N 44°23' E 013°54'65514.9
2018-Jun-21 06:01N 37°14' E 024°48'017.4
2018-Jun-21 06:00N 37°15' E 024°48'917.7
2018-Jun-21 05:30N 37°20' E 024°57'917.5
2018-Jun-21 05:00N 37°25' E 025°05'917.1
2018-Jun-21 04:30N 37°31' E 025°14'917.3
2018-Jun-21 04:00N 37°36' E 025°22'917.3
2018-Jun-21 03:30N 37°42' E 025°30'917.2
2018-Jun-21 03:00N 37°48' E 025°38'3 0.1
2018-Jun-20 00:45N 37°50' E 025°41'417.2
2018-Jun-20 00:30N 37°48' E 025°37'916.9
2018-Jun-20 00:00N 37°42' E 025°29'816.5
2018-Jun-19 23:30N 37°36' E 025°22'816.1
2018-Jun-19 23:00N 37°31' E 025°14'815.7
2018-Jun-19 22:30N 37°26' E 025°06'816.1
2018-Jun-19 22:00N 37°21' E 024°58'816.1
2018-Jun-19 21:30N 37°16' E 024°50'67114.7
2018-Jun-17 23:53N 44°34' E 013°37'717.1
2018-Jun-17 23:28N 44°40' E 013°32'816.9
2018-Jun-17 23:00N 44°46' E 013°26'916.8
2018-Jun-17 22:30N 44°54' E 013°19'816.8
2018-Jun-17 22:00N 45°00' E 013°13'816.6
2018-Jun-17 21:30N 45°08' E 013°07'916.5
2018-Jun-17 20:59N 45°16' E 013°04'715.5
2018-Jun-17 20:30N 45°23' E 013°04'816.9
2018-Jun-17 20:00N 45°29' E 013°13'816.7
2018-Jun-17 19:31N 45°34' E 013°22'816.6
2018-Jun-17 19:00N 45°38' E 013°33'815.0
2018-Jun-17 18:30N 45°38' E 013°44'1 0.1
2018-Jun-17 11:03N 45°38' E 013°46'0 0.0
2018-Jun-17 11:00N 45°38' E 013°46'0 0.0
2018-Jun-16 08:06N 45°38' E 013°46'0 0.0
2018-Jun-16 08:00N 45°38' E 013°46'0 0.1
2018-Jun-16 07:31N 45°38' E 013°46'2 4.9
2018-Jun-16 07:00N 45°39' E 013°42'714.3
2018-Jun-16 06:30N 45°36' E 013°33'918.4
2018-Jun-16 06:00N 45°30' E 013°22'918.2
2018-Jun-16 05:30N 45°24' E 013°14'917.6
2018-Jun-16 05:00N 45°15' E 013°14'918.9
2018-Jun-16 04:30N 45°06' E 013°18'918.7
2018-Jun-16 04:00N 44°57' E 013°22'918.5
2018-Jun-16 03:30N 44°49' E 013°29'918.5
2018-Jun-16 03:00N 44°41' E 013°36'918.3
2018-Jun-16 02:30N 44°34' E 013°43'2118.5
2018-Jun-16 01:23N 44°17' E 014°00'63717.2
2018-Jun-14 12:15N 36°44' E 023°49'718.0
2018-Jun-14 11:52N 36°47' E 023°56'618.3
2018-Jun-14 11:30N 36°51' E 024°03'918.2
2018-Jun-14 11:00N 36°55' E 024°13'918.2
2018-Jun-14 10:30N 37°00' E 024°23'2518.4
2018-Jun-14 09:10N 37°14' E 024°48'318.6
2018-Jun-14 09:01N 37°16' E 024°51'918.7
2018-Jun-14 08:30N 37°22' E 024°60'918.5
2018-Jun-14 08:00N 37°28' E 025°09'918.3
2018-Jun-14 07:30N 37°33' E 025°18'918.4
2018-Jun-14 07:01N 37°40' E 025°27'816.8
2018-Jun-14 06:31N 37°46' E 025°34'  
Track history (hours):
 
Tides and Currents Weather Stations Pressure Air Temp Water Temp Dewpoint Dewpoint Depression Visibility Wind Speed Wind Dir Waves Ship Positions

Ulusoy-14

Last reported at 2018-Jun-23 13:58 UTC. Time now 2018-Jun-23 14:09 UTC.
Position N 45°38' E 013°46'.

Length 208 m; draft 5.4 m.

Type: Cargo ship. MMSI: 271043164.

Date/timePositionNaut miles runAvg speedWind from/ knotsBaromVisibWave heightAir tempDewpointWater temp
2018-Jun-23 13:58N 45°38' E 013°46'0 0.0
2018-Jun-23 13:28N 45°38' E 013°46'0 0.0
2018-Jun-23 12:58N 45°38' E 013°46'0 0.0
2018-Jun-23 12:28N 45°38' E 013°46'0 0.0
2018-Jun-23 11:58N 45°38' E 013°46'0 0.0
2018-Jun-23 11:28N 45°38' E 013°46'0 0.0
2018-Jun-23 10:58N 45°38' E 013°46'0 0.0
2018-Jun-23 10:28N 45°38' E 013°46'0 0.0
2018-Jun-23 09:58N 45°38' E 013°46'0 0.0
2018-Jun-23 09:28N 45°38' E 013°46'0 0.0
2018-Jun-23 08:58N 45°38' E 013°46'0 0.0
2018-Jun-23 08:28N 45°38' E 013°46'0 0.0
2018-Jun-23 08:01N 45°38' E 013°46'1 1.8
2018-Jun-23 07:30N 45°38' E 013°44'612.3
2018-Jun-23 07:00N 45°37' E 013°36'917.3
2018-Jun-23 06:30N 45°32' E 013°26'917.3
2018-Jun-23 06:00N 45°27' E 013°16'815.9
2018-Jun-23 05:30N 45°19' E 013°13'917.8
2018-Jun-23 05:00N 45°11' E 013°17'917.9
2018-Jun-23 04:30N 45°02' E 013°20'917.6
2018-Jun-23 04:00N 44°54' E 013°25'917.8
2018-Jun-23 03:30N 44°46' E 013°31'917.6
2018-Jun-23 03:00N 44°39' E 013°38'1917.4
2018-Jun-23 01:55N 44°23' E 013°54'65514.9
2018-Jun-21 06:01N 37°14' E 024°48'017.4
2018-Jun-21 06:00N 37°15' E 024°48'917.7
2018-Jun-21 05:30N 37°20' E 024°57'917.5
2018-Jun-21 05:00N 37°25' E 025°05'917.1
2018-Jun-21 04:30N 37°31' E 025°14'917.3
2018-Jun-21 04:00N 37°36' E 025°22'917.3
2018-Jun-21 03:30N 37°42' E 025°30'917.2
2018-Jun-21 03:00N 37°48' E 025°38'3 0.1
2018-Jun-20 00:45N 37°50' E 025°41'417.2
2018-Jun-20 00:30N 37°48' E 025°37'916.9
2018-Jun-20 00:00N 37°42' E 025°29'816.5
2018-Jun-19 23:30N 37°36' E 025°22'816.1
2018-Jun-19 23:00N 37°31' E 025°14'815.7
2018-Jun-19 22:30N 37°26' E 025°06'816.1
2018-Jun-19 22:00N 37°21' E 024°58'816.1
2018-Jun-19 21:30N 37°16' E 024°50'67114.7
2018-Jun-17 23:53N 44°34' E 013°37'717.1
2018-Jun-17 23:28N 44°40' E 013°32'816.9
2018-Jun-17 23:00N 44°46' E 013°26'916.8
2018-Jun-17 22:30N 44°54' E 013°19'816.8
2018-Jun-17 22:00N 45°00' E 013°13'816.6
2018-Jun-17 21:30N 45°08' E 013°07'916.5
2018-Jun-17 20:59N 45°16' E 013°04'715.5
2018-Jun-17 20:30N 45°23' E 013°04'816.9
2018-Jun-17 20:00N 45°29' E 013°13'816.7
2018-Jun-17 19:31N 45°34' E 013°22'816.6
2018-Jun-17 19:00N 45°38' E 013°33'815.0
2018-Jun-17 18:30N 45°38' E 013°44'1 0.1
2018-Jun-17 11:03N 45°38' E 013°46'0 0.0
2018-Jun-17 11:00N 45°38' E 013°46'0 0.0
2018-Jun-16 08:06N 45°38' E 013°46'0 0.0
2018-Jun-16 08:00N 45°38' E 013°46'0 0.1
2018-Jun-16 07:31N 45°38' E 013°46'2 4.9
2018-Jun-16 07:00N 45°39' E 013°42'714.3
2018-Jun-16 06:30N 45°36' E 013°33'918.4
2018-Jun-16 06:00N 45°30' E 013°22'918.2
2018-Jun-16 05:30N 45°24' E 013°14'917.6
2018-Jun-16 05:00N 45°15' E 013°14'918.9
2018-Jun-16 04:30N 45°06' E 013°18'918.7
2018-Jun-16 04:00N 44°57' E 013°22'918.5
2018-Jun-16 03:30N 44°49' E 013°29'918.5
2018-Jun-16 03:00N 44°41' E 013°36'918.3
2018-Jun-16 02:30N 44°34' E 013°43'2118.5
2018-Jun-16 01:23N 44°17' E 014°00'63717.2
2018-Jun-14 12:15N 36°44' E 023°49'718.0
2018-Jun-14 11:52N 36°47' E 023°56'618.3
2018-Jun-14 11:30N 36°51' E 024°03'918.2
2018-Jun-14 11:00N 36°55' E 024°13'918.2
2018-Jun-14 10:30N 37°00' E 024°23'2518.4
2018-Jun-14 09:10N 37°14' E 024°48'318.6
2018-Jun-14 09:01N 37°16' E 024°51'918.7
2018-Jun-14 08:30N 37°22' E 024°60'918.5
2018-Jun-14 08:00N 37°28' E 025°09'918.3
2018-Jun-14 07:30N 37°33' E 025°18'918.4
2018-Jun-14 07:01N 37°40' E 025°27'816.8
2018-Jun-14 06:31N 37°46' E 025°34'  

Dump ship's entire track history